Time;durP1;ratioP1;P1;durP2;ratioP2;P2;SDS_P1;SDS_P2;PMS_P1;PMS_P2;Temp;Humidity;BMP_temperature;BMP_pressure;BME280_temperature;BME280_humidity;BME280_pressure;Samples;Min_cycle;Max_cycle;Signal;HPM_P1;HPM_P2
2024/02/26 00:01:38;;;;;;;19.83;10.65;;;4.80;99.90;;;;;;5072484;28;20087;-69
2024/02/26 00:04:04;;;;;;;20.70;10.55;;;4.90;99.90;;;;;;5073258;28;20575;-69
2024/02/26 00:06:31;;;;;;;23.13;13.50;;;4.80;99.90;;;;;;5073180;28;20396;-69
2024/02/26 00:08:56;;;;;;;21.95;14.00;;;4.90;99.90;;;;;;5072448;28;20068;-69
2024/02/26 00:11:22;;;;;;;22.13;12.45;;;4.70;99.90;;;;;;5072569;28;20075;-69
2024/02/26 00:13:47;;;;;;;19.38;11.70;;;5.00;99.90;;;;;;5073002;28;20538;-69
2024/02/26 00:16:13;;;;;;;20.63;10.68;;;4.70;99.90;;;;;;5072685;28;20585;-69
2024/02/26 00:18:39;;;;;;;22.52;12.75;;;4.70;99.90;;;;;;5072661;28;20040;-69
2024/02/26 00:21:04;;;;;;;20.08;12.43;;;4.90;99.90;;;;;;5072089;28;20033;-69
2024/02/26 00:23:30;;;;;;;21.20;12.18;;;4.60;99.90;;;;;;5072756;28;20040;-69
2024/02/26 00:25:56;;;;;;;22.98;12.68;;;4.80;99.90;;;;;;5072041;28;20412;-69
2024/02/26 00:28:21;;;;;;;23.38;13.43;;;4.80;99.90;;;;;;5072357;28;20488;-69
2024/02/26 00:30:47;;;;;;;27.92;14.32;;;4.70;99.90;;;;;;5072003;28;20040;-69
2024/02/26 00:33:16;;;;;;;23.13;12.25;;;4.70;99.90;;;;;;5072679;28;20407;-69
2024/02/26 00:35:42;;;;;;;26.17;14.60;;;4.80;99.90;;;;;;5072578;28;20040;-69
2024/02/26 00:38:08;;;;;;;26.88;15.05;;;4.70;99.90;;;;;;5072040;28;20538;-69
2024/02/26 00:40:34;;;;;;;25.45;14.95;;;4.60;99.90;;;;;;5071887;28;20090;-69
2024/02/26 00:42:59;;;;;;;25.55;14.23;;;4.70;99.90;;;;;;5054477;28;20047;-69
2024/02/26 00:45:25;;;;;;;25.23;14.40;;;4.50;99.90;;;;;;5072267;28;20044;-69
2024/02/26 00:47:51;;;;;;;27.00;16.00;;;4.60;99.90;;;;;;5072389;28;20037;-69
2024/02/26 00:50:16;;;;;;;23.30;13.38;;;4.70;99.90;;;;;;5072079;28;20032;-69
2024/02/26 00:52:42;;;;;;;25.77;14.10;;;4.40;99.90;;;;;;5054107;28;20455;-69
2024/02/26 00:55:08;;;;;;;25.10;14.15;;;4.60;99.90;;;;;;5072146;28;20048;-69
2024/02/26 00:57:34;;;;;;;23.23;13.98;;;4.60;99.90;;;;;;5054098;28;20072;-69
2024/02/26 01:00:00;;;;;;;28.90;15.05;;;4.30;99.90;;;;;;5071647;28;20641;-69
2024/02/26 01:02:26;;;;;;;24.67;13.93;;;4.30;99.90;;;;;;5053682;28;20044;-69
2024/02/26 01:04:52;;;;;;;25.83;14.50;;;4.60;99.90;;;;;;5071877;28;20111;-69
2024/02/26 01:07:18;;;;;;;26.63;14.90;;;4.60;99.90;;;;;;5054074;28;20043;-69
2024/02/26 01:09:44;;;;;;;28.05;14.90;;;4.30;99.90;;;;;;5053921;28;20583;-69
2024/02/26 01:12:10;;;;;;;22.45;14.13;;;4.30;99.90;;;;;;5071409;28;20120;-69
2024/02/26 01:14:35;;;;;;;23.10;14.75;;;4.50;99.90;;;;;;5053766;28;20048;-69
2024/02/26 01:17:01;;;;;;;28.90;13.77;;;4.20;99.90;;;;;;5071916;28;20033;-69
2024/02/26 01:19:26;;;;;;;23.17;12.90;;;4.40;99.90;;;;;;5071576;28;20039;-69
2024/02/26 01:21:53;;;;;;;26.40;13.98;;;4.50;99.90;;;;;;5071290;28;20071;-69
2024/02/26 01:24:18;;;;;;;23.42;13.95;;;4.20;99.90;;;;;;5071631;28;20500;-69
2024/02/26 01:26:44;;;;;;;23.35;14.05;;;4.50;99.90;;;;;;5071654;28;20032;-69
2024/02/26 01:29:10;;;;;;;22.63;13.48;;;4.50;99.90;;;;;;5071176;28;20064;-69
2024/02/26 01:31:35;;;;;;;24.92;15.23;;;4.40;99.90;;;;;;5071319;28;20036;-69
2024/02/26 01:34:01;;;;;;;26.45;15.20;;;4.30;99.90;;;;;;5071544;28;20457;-69
2024/02/26 01:36:27;;;;;;;26.00;15.30;;;4.30;99.90;;;;;;5071479;28;20032;-69
2024/02/26 01:38:53;;;;;;;23.70;12.82;;;4.30;99.90;;;;;;5071165;28;20511;-69
2024/02/26 01:41:18;;;;;;;25.17;14.90;;;4.50;99.90;;;;;;5071000;28;20047;-69
2024/02/26 01:43:44;;;;;;;24.15;13.93;;;4.50;99.90;;;;;;5071362;28;20484;-69
2024/02/26 01:46:13;;;;;;;21.13;13.02;;;4.60;99.90;;;;;;5071577;28;20037;-69
2024/02/26 01:48:40;;;;;;;24.33;13.85;;;4.60;99.90;;;;;;5071272;28;20032;-69
2024/02/26 01:51:06;;;;;;;23.92;13.00;;;4.70;99.90;;;;;;5071074;28;20094;-69
2024/02/26 01:53:32;;;;;;;24.80;14.40;;;4.50;99.90;;;;;;5071466;28;20040;-69
2024/02/26 01:55:58;;;;;;;22.92;13.35;;;4.70;99.90;;;;;;5071302;28;20033;-69
2024/02/26 01:58:24;;;;;;;23.33;13.38;;;4.50;99.90;;;;;;5070930;28;20503;-69
2024/02/26 02:00:49;;;;;;;20.52;12.57;;;4.60;99.90;;;;;;5070950;28;20039;-69
2024/02/26 02:03:15;;;;;;;20.42;13.05;;;4.40;99.90;;;;;;5053276;28;20043;-69
2024/02/26 02:05:42;;;;;;;20.48;11.70;;;4.50;99.90;;;;;;5071290;28;20036;-69
2024/02/26 02:08:11;;;;;;;19.27;11.88;;;4.50;99.90;;;;;;5070998;28;20044;-69
2024/02/26 02:10:38;;;;;;;22.02;11.65;;;4.60;99.90;;;;;;5070750;28;20037;-69
2024/02/26 02:13:03;;;;;;;19.65;12.05;;;4.50;99.90;;;;;;5071379;28;20037;-69
2024/02/26 02:15:29;;;;;;;18.25;11.10;;;4.60;99.90;;;;;;5053343;28;20384;-69
2024/02/26 02:17:55;;;;;;;20.35;11.63;;;4.70;99.90;;;;;;5071311;28;20035;-69
2024/02/26 02:20:34;;;;;;;15.60;10.05;;;4.60;99.90;;;;;;5070748;28;20033;-69
2024/02/26 02:22:59;;;;;;;17.60;10.63;;;4.50;99.90;;;;;;5053198;28;20040;-69
2024/02/26 02:25:25;;;;;;;15.93;10.52;;;4.40;99.90;;;;;;5071042;28;20036;-69
2024/02/26 02:27:53;;;;;;;15.40;9.80;;;4.60;99.90;;;;;;5071204;28;20560;-70
2024/02/26 02:30:19;;;;;;;15.30;9.75;;;4.40;99.90;;;;;;5052603;28;20574;-69
2024/02/26 02:32:45;;;;;;;12.88;8.25;;;4.40;99.90;;;;;;5052880;28;20045;-69
2024/02/26 02:35:10;;;;;;;14.43;9.07;;;4.70;99.90;;;;;;5052997;28;20041;-69
2024/02/26 02:37:37;;;;;;;16.13;8.82;;;4.60;99.90;;;;;;5070938;28;20125;-69
2024/02/26 02:40:03;;;;;;;10.98;7.65;;;4.50;99.90;;;;;;5052551;28;20083;-69
2024/02/26 02:42:28;;;;;;;13.27;8.32;;;4.70;99.90;;;;;;5070493;28;20107;-69
2024/02/26 02:44:54;;;;;;;12.55;7.90;;;4.50;99.90;;;;;;5071001;28;20036;-69
2024/02/26 02:47:19;;;;;;;11.82;7.93;;;4.40;99.90;;;;;;5071029;28;20063;-69
2024/02/26 02:49:45;;;;;;;11.65;7.65;;;4.50;99.90;;;;;;5073435;28;20028;-69
2024/02/26 02:52:11;;;;;;;12.85;8.07;;;4.50;99.90;;;;;;5073955;28;20131;-69
2024/02/26 02:54:40;;;;;;;11.57;7.50;;;4.70;99.90;;;;;;5074412;28;20040;-69
2024/02/26 02:57:05;;;;;;;11.55;7.13;;;4.50;99.90;;;;;;5074479;28;20086;-69
2024/02/26 02:59:31;;;;;;;12.20;7.68;;;4.60;99.90;;;;;;5074152;28;20041;-69
2024/02/26 03:01:57;;;;;;;10.57;7.30;;;4.50;99.90;;;;;;5055959;28;20047;-69
2024/02/26 03:04:23;;;;;;;11.75;7.18;;;4.60;99.90;;;;;;5074360;28;20033;-69
2024/02/26 03:06:48;;;;;;;10.18;6.13;;;4.70;99.90;;;;;;5056205;28;20092;-69
2024/02/26 03:09:14;;;;;;;9.75;6.28;;;4.40;99.90;;;;;;5074031;28;20085;-69
2024/02/26 03:11:39;;;;;;;11.80;7.30;;;4.60;99.90;;;;;;5055713;28;20071;-69
2024/02/26 03:14:06;;;;;;;10.73;6.85;;;4.50;99.90;;;;;;5056036;28;20496;-69
2024/02/26 03:16:32;;;;;;;10.48;6.75;;;4.50;99.90;;;;;;5073965;28;20500;-69
2024/02/26 03:18:57;;;;;;;8.98;6.22;;;4.60;99.90;;;;;;5055957;28;20086;-69
2024/02/26 03:21:25;;;;;;;10.43;6.60;;;4.40;99.90;;;;;;5073413;28;20040;-69
2024/02/26 03:23:50;;;;;;;12.30;6.47;;;4.60;99.90;;;;;;5055975;28;20043;-69
2024/02/26 03:26:16;;;;;;;11.48;6.78;;;4.50;99.90;;;;;;5055874;28;20036;-69
2024/02/26 03:28:41;;;;;;;10.43;6.35;;;4.40;99.90;;;;;;5073690;28;20048;-69
2024/02/26 03:31:07;;;;;;;11.07;6.18;;;4.60;99.90;;;;;;5055608;28;20032;-69
2024/02/26 03:33:33;;;;;;;9.98;6.32;;;4.50;99.90;;;;;;5055973;28;20033;-69
2024/02/26 03:35:59;;;;;;;9.50;5.90;;;4.40;99.90;;;;;;5055597;28;20049;-69
2024/02/26 03:38:24;;;;;;;9.25;6.10;;;4.40;99.90;;;;;;5073344;28;20043;-69
2024/02/26 03:40:50;;;;;;;9.65;5.30;;;4.40;99.90;;;;;;5055141;28;20041;-69
2024/02/26 03:43:16;;;;;;;9.60;5.82;;;4.30;99.90;;;;;;5055527;28;20044;-69
2024/02/26 03:45:42;;;;;;;8.43;5.75;;;4.40;99.90;;;;;;5073540;28;20033;-69
2024/02/26 03:48:08;;;;;;;8.80;6.00;;;4.40;99.90;;;;;;5055155;28;20047;-69
2024/02/26 03:50:34;;;;;;;9.50;5.82;;;4.40;99.90;;;;;;5072768;28;20119;-69
2024/02/26 03:53:00;;;;;;;9.00;5.93;;;4.20;99.90;;;;;;5073539;28;20051;-69
2024/02/26 03:55:26;;;;;;;9.25;6.20;;;4.30;99.90;;;;;;5073407;28;20119;-69
2024/02/26 03:57:52;;;;;;;8.73;5.20;;;4.10;99.90;;;;;;5055207;28;20131;-69
2024/02/26 04:00:18;;;;;;;11.02;5.88;;;4.30;99.90;;;;;;5053843;28;20043;-69
2024/02/26 04:02:43;;;;;;;9.80;4.90;;;4.10;99.90;;;;;;5072611;28;20036;-69
2024/02/26 04:05:10;;;;;;;8.15;4.85;;;4.30;99.90;;;;;;5055141;28;20504;-69
2024/02/26 04:07:36;;;;;;;8.73;5.15;;;4.30;99.90;;;;;;5073259;28;20041;-69
2024/02/26 04:10:04;;;;;;;8.65;5.05;;;4.20;99.90;;;;;;5055179;28;20442;-69
2024/02/26 04:12:30;;;;;;;9.43;5.15;;;4.30;99.90;;;;;;5054806;28;20055;-69
2024/02/26 04:14:56;;;;;;;8.20;5.18;;;4.20;99.90;;;;;;5072897;28;20496;-69
2024/02/26 04:17:21;;;;;;;9.32;6.10;;;4.00;99.90;;;;;;5072891;28;20037;-69
2024/02/26 04:19:47;;;;;;;9.45;5.40;;;4.20;99.90;;;;;;5054470;28;20415;-69
2024/02/26 04:22:13;;;;;;;8.15;5.10;;;4.20;99.90;;;;;;5072384;28;20041;-69
2024/02/26 04:24:38;;;;;;;9.40;6.00;;;4.20;99.90;;;;;;5072778;28;20062;-69
2024/02/26 04:27:04;;;;;;;9.30;5.60;;;4.10;99.90;;;;;;5054763;28;20037;-69
2024/02/26 04:29:30;;;;;;;13.70;6.30;;;4.20;99.90;;;;;;5072257;28;20089;-69
2024/02/26 04:31:55;;;;;;;9.07;6.20;;;4.20;99.90;;;;;;5054439;28;20067;-69
2024/02/26 04:34:21;;;;;;;10.27;5.97;;;4.20;99.90;;;;;;5072462;28;20087;-69
2024/02/26 04:36:47;;;;;;;11.07;6.78;;;4.20;99.90;;;;;;5054740;28;20067;-69
2024/02/26 04:39:13;;;;;;;11.98;5.95;;;4.10;99.90;;;;;;5054037;28;20052;-68
2024/02/26 04:41:39;;;;;;;14.48;7.55;;;4.00;99.90;;;;;;5071732;28;20052;-68
2024/02/26 04:44:05;;;;;;;15.27;6.63;;;4.00;99.90;;;;;;5072418;28;20048;-68
2024/02/26 04:46:31;;;;;;;13.30;6.63;;;4.10;99.90;;;;;;5072263;28;20492;-68
2024/02/26 04:48:56;;;;;;;13.90;6.70;;;4.10;99.90;;;;;;5071840;28;20036;-69
2024/02/26 04:51:22;;;;;;;13.93;6.93;;;4.00;99.90;;;;;;5071930;28;20040;-68
2024/02/26 04:53:47;;;;;;;11.02;6.40;;;4.10;99.90;;;;;;5072384;28;20032;-69
2024/02/26 04:56:13;;;;;;;10.85;6.13;;;4.10;99.90;;;;;;5072272;28;20530;-69
2024/02/26 04:58:39;;;;;;;10.32;6.20;;;4.10;99.90;;;;;;5071894;28;20511;-68
2024/02/26 05:01:06;;;;;;;10.90;5.85;;;4.20;99.90;;;;;;5071483;28;20040;-68
2024/02/26 05:03:31;;;;;;;11.00;5.45;;;4.10;99.90;;;;;;5071925;28;20033;-68
2024/02/26 05:05:58;;;;;;;9.98;6.20;;;4.20;99.90;;;;;;5072207;28;20059;-68
2024/02/26 05:08:23;;;;;;;13.35;6.07;;;4.10;99.90;;;;;;5071537;28;20048;-68
2024/02/26 05:10:49;;;;;;;8.50;5.55;;;4.20;99.90;;;;;;5053656;28;20032;-68
2024/02/26 05:13:17;;;;;;;8.95;6.25;;;4.10;99.90;;;;;;5071945;28;20561;-69
2024/02/26 05:15:43;;;;;;;10.68;6.68;;;4.20;99.90;;;;;;5071858;28;20408;-68
2024/02/26 05:18:09;;;;;;;13.55;6.25;;;4.00;99.90;;;;;;5071319;28;20052;-68
2024/02/26 05:20:35;;;;;;;9.05;6.13;;;3.90;99.90;;;;;;5071514;28;20083;-68
2024/02/26 05:23:01;;;;;;;11.48;6.90;;;4.00;99.90;;;;;;5071974;28;20044;-68
2024/02/26 05:25:27;;;;;;;9.27;5.72;;;4.10;99.90;;;;;;5071878;28;20377;-68
2024/02/26 05:27:53;;;;;;;13.80;6.15;;;4.00;99.90;;;;;;5071838;28;20032;-68
2024/02/26 05:30:18;;;;;;;10.57;6.32;;;4.20;99.90;;;;;;5071579;28;20068;-69
2024/02/26 05:32:44;;;;;;;9.45;6.32;;;4.00;99.90;;;;;;5049249;28;20040;-68
2024/02/26 05:35:10;;;;;;;13.05;6.85;;;4.00;99.90;;;;;;5071687;28;20037;-68
2024/02/26 05:37:35;;;;;;;10.20;6.03;;;3.90;99.90;;;;;;5071564;28;20401;-69
2024/02/26 05:40:03;;;;;;;11.65;6.22;;;4.00;99.90;;;;;;5071097;28;20044;-68
2024/02/26 05:42:29;;;;;;;8.63;5.95;;;4.20;99.90;;;;;;5071018;28;20488;-68
2024/02/26 05:44:55;;;;;;;12.60;6.75;;;3.90;99.90;;;;;;5071457;28;20036;-68
2024/02/26 05:47:20;;;;;;;11.40;5.70;;;4.00;99.90;;;;;;5071411;28;20510;-68
2024/02/26 05:49:46;;;;;;;11.98;5.38;;;4.10;99.90;;;;;;5071399;28;20036;-68
2024/02/26 05:52:12;;;;;;;8.65;5.28;;;4.10;99.90;;;;;;5071074;28;20035;-68
2024/02/26 05:54:37;;;;;;;9.10;4.53;;;4.10;99.90;;;;;;5071452;28;20512;-69
2024/02/26 05:57:03;;;;;;;7.07;4.38;;;4.20;99.90;;;;;;5071450;28;20072;-69
2024/02/26 05:59:29;;;;;;;10.98;4.82;;;4.10;99.90;;;;;;5070999;28;20578;-68
2024/02/26 06:01:54;;;;;;;8.13;4.97;;;4.30;99.90;;;;;;5070676;28;20036;-68
2024/02/26 06:04:20;;;;;;;6.50;4.35;;;4.10;99.90;;;;;;5071547;28;20032;-68
2024/02/26 06:06:46;;;;;;;6.90;4.18;;;4.20;99.90;;;;;;5071363;28;20124;-68
2024/02/26 06:09:12;;;;;;;22.52;6.40;;;4.20;99.90;;;;;;5071027;28;20107;-68
2024/02/26 06:11:38;;;;;;;8.45;4.38;;;4.00;99.90;;;;;;5070902;28;20033;-68
2024/02/26 06:14:03;;;;;;;7.47;4.45;;;4.20;99.90;;;;;;5071201;28;20564;-69
2024/02/26 06:16:29;;;;;;;6.78;3.95;;;4.20;99.90;;;;;;5071032;28;20139;-69
2024/02/26 06:18:54;;;;;;;10.45;4.65;;;4.20;99.90;;;;;;5071153;28;20078;-68
2024/02/26 06:21:20;;;;;;;9.63;4.30;;;4.20;99.90;;;;;;5070683;28;20036;-69
2024/02/26 06:23:46;;;;;;;5.82;3.90;;;4.10;99.90;;;;;;5072435;28;20135;-69
2024/02/26 06:26:11;;;;;;;5.45;4.15;;;4.10;99.90;;;;;;5075031;28;20032;-69
2024/02/26 06:28:40;;;;;;;5.70;3.70;;;4.10;99.90;;;;;;5064793;28;20082;-69
2024/02/26 06:31:06;;;;;;;6.32;3.75;;;4.30;99.90;;;;;;5056887;28;20047;-69
2024/02/26 06:33:32;;;;;;;6.70;4.18;;;4.10;99.90;;;;;;5055076;28;20089;-68
2024/02/26 06:35:58;;;;;;;6.85;3.67;;;4.10;99.90;;;;;;5054577;28;20037;-69
2024/02/26 06:38:23;;;;;;;5.65;3.85;;;4.30;99.90;;;;;;5054005;28;20041;-70
2024/02/26 06:40:49;;;;;;;8.35;4.13;;;4.30;99.90;;;;;;5035999;28;20077;-70
2024/02/26 06:43:15;;;;;;;6.82;3.85;;;4.30;99.90;;;;;;5054538;28;20170;-69
2024/02/26 06:45:40;;;;;;;6.82;4.28;;;4.20;99.90;;;;;;5036605;28;20496;-70
2024/02/26 06:48:07;;;;;;;5.00;3.63;;;4.20;99.90;;;;;;5054216;28;20040;-70
2024/02/26 06:50:32;;;;;;;6.57;4.40;;;4.30;99.90;;;;;;5054027;28;20033;-69
2024/02/26 06:52:58;;;;;;;5.03;3.78;;;4.20;99.90;;;;;;5054434;28;20044;-69
2024/02/26 06:55:23;;;;;;;7.25;4.00;;;4.30;99.90;;;;;;5054405;28;20095;-70
2024/02/26 06:57:49;;;;;;;8.88;4.82;;;4.10;99.90;;;;;;5054420;28;20095;-70
2024/02/26 07:00:16;;;;;;;8.38;4.85;;;4.20;99.90;;;;;;5054113;28;20043;-70
2024/02/26 07:02:42;;;;;;;7.75;5.07;;;4.30;99.90;;;;;;5054045;28;20041;-70
2024/02/26 07:05:08;;;;;;;8.07;5.53;;;4.30;99.90;;;;;;5054379;28;20473;-70
2024/02/26 07:07:34;;;;;;;11.63;6.00;;;4.30;99.90;;;;;;5036530;28;20453;-70
2024/02/26 07:10:03;;;;;;;8.63;4.57;;;4.40;99.90;;;;;;5053897;28;20080;-69
2024/02/26 07:12:29;;;;;;;7.40;4.80;;;4.30;99.90;;;;;;5035933;28;20056;-70
2024/02/26 07:14:55;;;;;;;7.45;4.68;;;4.40;99.90;;;;;;5053948;28;20408;-70
2024/02/26 07:17:20;;;;;;;8.02;4.32;;;4.50;99.90;;;;;;5054050;28;20048;-70
2024/02/26 07:19:46;;;;;;;10.38;5.20;;;4.40;99.90;;;;;;5053854;28;20051;-69
2024/02/26 07:22:11;;;;;;;6.63;4.85;;;4.30;99.90;;;;;;5053625;28;20037;-70
2024/02/26 07:24:37;;;;;;;11.18;5.07;;;4.50;99.90;;;;;;5053926;28;20033;-69
2024/02/26 07:27:03;;;;;;;7.57;5.13;;;4.30;99.90;;;;;;5035976;28;20160;-69
2024/02/26 07:29:29;;;;;;;10.63;5.63;;;4.30;99.90;;;;;;5053451;28;20055;-70
2024/02/26 07:31:54;;;;;;;12.57;6.25;;;4.40;99.90;;;;;;5053452;28;20052;-70
2024/02/26 07:34:20;;;;;;;10.75;6.38;;;4.50;99.90;;;;;;5053730;28;20037;-69
2024/02/26 07:36:45;;;;;;;10.77;5.65;;;4.40;99.90;;;;;;5035908;28;20489;-69
2024/02/26 07:39:11;;;;;;;8.93;5.20;;;4.50;99.90;;;;;;5053123;28;20116;-70
2024/02/26 07:41:38;;;;;;;8.23;4.88;;;4.50;99.90;;;;;;5053074;28;20033;-69
2024/02/26 07:44:04;;;;;;;7.75;4.57;;;4.50;99.90;;;;;;5035833;28;20072;-69
2024/02/26 07:46:30;;;;;;;8.18;4.80;;;4.60;99.90;;;;;;5053424;28;20083;-69
2024/02/26 07:48:55;;;;;;;7.65;4.32;;;4.60;99.90;;;;;;5052950;28;20032;-69
2024/02/26 07:51:22;;;;;;;7.22;3.70;;;4.60;99.90;;;;;;5053024;28;20041;-69
2024/02/26 07:53:48;;;;;;;5.72;4.22;;;4.50;99.90;;;;;;5053412;28;20045;-69
2024/02/26 07:56:13;;;;;;;5.40;3.70;;;4.50;99.90;;;;;;5053263;28;20099;-68
2024/02/26 07:58:39;;;;;;;7.32;3.90;;;4.60;99.90;;;;;;5052811;28;20040;-69
2024/02/26 08:01:04;;;;;;;5.35;4.20;;;4.60;99.90;;;;;;5052824;28;20041;-70
2024/02/26 08:03:30;;;;;;;5.28;3.72;;;4.50;99.90;;;;;;5053304;28;20090;-69
2024/02/26 08:05:56;;;;;;;5.45;3.85;;;4.50;99.90;;;;;;5035121;28;20127;-70
2024/02/26 08:08:21;;;;;;;7.63;4.40;;;4.60;99.90;;;;;;5052849;28;20037;-70
2024/02/26 08:10:47;;;;;;;6.22;4.35;;;4.70;99.90;;;;;;5052761;28;20041;-69
2024/02/26 08:13:13;;;;;;;6.68;3.85;;;4.60;99.90;;;;;;5052893;28;20523;-70
2024/02/26 08:15:38;;;;;;;8.13;4.10;;;4.70;99.90;;;;;;5053049;28;20064;-70
2024/02/26 08:18:04;;;;;;;5.70;3.15;;;4.70;99.90;;;;;;5052715;28;20076;-69
2024/02/26 08:20:30;;;;;;;6.28;3.40;;;4.60;99.90;;;;;;5052340;28;20045;-70
2024/02/26 08:22:56;;;;;;;5.20;3.60;;;4.70;99.90;;;;;;5052791;28;20475;-70
2024/02/26 08:25:23;;;;;;;5.20;3.22;;;4.70;99.90;;;;;;5052475;28;20062;-69
2024/02/26 08:27:49;;;;;;;4.47;2.92;;;4.60;99.90;;;;;;5052344;28;20111;-70
2024/02/26 08:30:16;;;;;;;5.63;3.08;;;4.70;99.90;;;;;;5052325;28;20043;-70
2024/02/26 08:32:47;;;;;;;5.93;3.20;;;4.70;99.90;;;;;;5065124;28;20060;-71
2024/02/26 08:35:13;;;;;;;4.60;3.20;;;4.80;99.90;;;;;;5054517;28;20051;-69
2024/02/26 08:37:38;;;;;;;4.60;3.20;;;4.70;99.90;;;;;;5072342;28;20040;-69
2024/02/26 08:40:05;;;;;;;6.47;3.47;;;4.80;99.90;;;;;;5072141;28;20107;-69
2024/02/26 08:42:31;;;;;;;6.57;3.53;;;4.80;99.90;;;;;;5053825;28;20040;-70
2024/02/26 08:45:00;;;;;;;4.55;3.22;;;4.80;99.90;;;;;;5072504;28;20036;-69
2024/02/26 08:47:25;;;;;;;5.00;3.88;;;4.80;99.90;;;;;;5071852;28;20040;-70
2024/02/26 08:49:51;;;;;;;6.10;3.45;;;4.80;99.90;;;;;;5071944;28;20032;-69
2024/02/26 08:52:17;;;;;;;4.90;3.30;;;4.90;99.90;;;;;;5071796;28;20048;-70
2024/02/26 08:54:42;;;;;;;7.10;2.83;;;4.90;99.90;;;;;;5072011;28;20045;-70
2024/02/26 08:57:08;;;;;;;7.63;2.88;;;5.00;99.90;;;;;;5072078;28;20043;-70
2024/02/26 08:59:34;;;;;;;5.18;3.13;;;5.00;99.90;;;;;;5071734;28;20513;-69
2024/02/26 09:01:59;;;;;;;4.82;3.15;;;5.00;99.90;;;;;;5071593;28;20046;-70
2024/02/26 09:04:26;;;;;;;4.05;3.03;;;5.00;99.90;;;;;;5071997;28;20123;-70
2024/02/26 09:06:52;;;;;;;5.88;3.22;;;5.00;99.90;;;;;;5054168;28;20170;-70
2024/02/26 09:09:17;;;;;;;4.68;3.15;;;5.00;99.90;;;;;;5071530;28;20067;-70
2024/02/26 09:11:43;;;;;;;10.75;3.60;;;5.10;99.90;;;;;;5071358;28;20458;-70
2024/02/26 09:14:08;;;;;;;5.95;3.08;;;5.10;99.90;;;;;;5071996;28;20048;-70
2024/02/26 09:16:34;;;;;;;10.32;3.25;;;5.00;99.90;;;;;;5071945;28;20072;-70
2024/02/26 09:19:00;;;;;;;3.92;2.90;;;5.10;99.90;;;;;;5071576;28;20082;-69
2024/02/26 09:21:26;;;;;;;5.10;2.92;;;5.10;99.90;;;;;;5071360;28;20044;-70
2024/02/26 09:23:52;;;;;;;5.80;3.45;;;5.20;99.90;;;;;;5071695;28;20116;-69
2024/02/26 09:26:18;;;;;;;5.10;2.72;;;5.20;99.90;;;;;;5071577;28;20500;-69
2024/02/26 09:28:44;;;;;;;4.43;3.33;;;5.20;99.90;;;;;;5071367;28;20043;-70
2024/02/26 09:31:10;;;;;;;5.10;3.03;;;5.20;99.90;;;;;;5071200;28;20530;-70
2024/02/26 09:33:35;;;;;;;5.03;2.90;;;5.30;99.90;;;;;;5053882;28;20076;-70
2024/02/26 09:36:02;;;;;;;5.30;2.78;;;5.30;99.90;;;;;;5071475;28;20037;-70
2024/02/26 09:38:28;;;;;;;4.72;3.40;;;5.40;99.90;;;;;;5071288;28;20067;-70
2024/02/26 09:40:54;;;;;;;4.88;3.35;;;5.30;99.90;;;;;;5053123;28;20036;-69
2024/02/26 09:43:25;;;;;;;4.80;3.10;;;5.40;99.90;;;;;;5071696;28;20411;-69
2024/02/26 09:45:53;;;;;;;5.07;3.30;;;5.40;99.90;;;;;;5071687;28;20060;-70
2024/02/26 09:48:19;;;;;;;3.83;2.78;;;5.40;99.90;;;;;;5071256;28;20071;-69
2024/02/26 09:50:45;;;;;;;4.22;2.38;;;5.40;99.90;;;;;;5071163;28;20041;-70
2024/02/26 09:53:13;;;;;;;4.53;2.65;;;5.50;99.90;;;;;;5053429;28;20055;-70
2024/02/26 09:55:39;;;;;;;4.10;2.70;;;5.50;99.90;;;;;;5071606;28;20052;-70
2024/02/26 09:58:06;;;;;;;4.50;3.10;;;5.50;99.90;;;;;;5071482;28;20048;-70
2024/02/26 10:00:35;;;;;;;3.60;2.65;;;5.50;99.90;;;;;;5075214;28;20044;-70
2024/02/26 10:03:13;;;;;;;3.75;3.03;;;5.50;99.90;;;;;;5057385;28;20044;-70
2024/02/26 10:05:40;;;;;;;5.40;2.88;;;5.40;99.90;;;;;;5075391;28;20178;-70
2024/02/26 10:08:08;;;;;;;4.22;2.95;;;5.50;99.90;;;;;;5057014;28;20037;-70
2024/02/26 10:10:34;;;;;;;4.70;3.45;;;5.60;99.90;;;;;;5075021;28;20043;-70
2024/02/26 10:13:01;;;;;;;6.93;3.45;;;5.70;99.90;;;;;;5057446;28;20032;-70
2024/02/26 10:15:27;;;;;;;4.18;2.95;;;5.60;99.90;;;;;;5057447;28;20068;-70
2024/02/26 10:17:53;;;;;;;6.75;3.20;;;5.50;99.90;;;;;;5075108;28;20115;-70
2024/02/26 10:20:21;;;;;;;5.43;2.90;;;5.50;99.90;;;;;;5074819;28;20045;-69
2024/02/26 10:22:47;;;;;;;3.85;2.70;;;5.50;99.90;;;;;;5074802;28;20695;-70
2024/02/26 10:25:13;;;;;;;3.35;2.88;;;5.60;99.90;;;;;;5075209;28;20120;-70
2024/02/26 10:27:42;;;;;;;3.90;2.60;;;5.60;99.90;;;;;;5075054;28;20040;-70
2024/02/26 10:30:21;;;;;;;3.88;2.58;;;5.60;99.90;;;;;;5074726;28;20048;-70
2024/02/26 10:32:47;;;;;;;4.72;3.10;;;5.70;99.90;;;;;;5074654;28;20040;-71
2024/02/26 10:35:20;;;;;;;5.43;3.17;;;5.70;99.90;;;;;;5056905;28;20063;-70
2024/02/26 10:37:46;;;;;;;3.60;2.83;;;5.70;99.90;;;;;;5074805;28;20162;-70
2024/02/26 10:40:14;;;;;;;3.60;2.25;;;5.60;99.90;;;;;;5115105;22;20097;-73
2024/02/26 10:42:40;;;;;;;3.88;2.83;;;5.70;99.90;;;;;;5092803;28;20126;-72
2024/02/26 10:45:08;;;;;;;4.80;2.60;;;5.80;99.90;;;;;;5093485;28;20480;-74
2024/02/26 10:47:35;;;;;;;3.97;2.83;;;5.70;99.90;;;;;;5076590;28;20036;-74
2024/02/26 10:50:05;;;;;;;5.43;2.90;;;5.80;99.90;;;;;;5076699;28;20086;-73
2024/02/26 10:52:33;;;;;;;3.40;2.67;;;5.80;99.90;;;;;;5072320;28;20457;-74
2024/02/26 10:55:02;;;;;;;3.05;2.70;;;5.80;99.90;;;;;;5074272;28;20044;-73
2024/02/26 10:57:32;;;;;;;5.22;3.00;;;5.80;99.90;;;;;;5073264;28;20526;-73
2024/02/26 11:00:00;;;;;;;4.07;2.85;;;5.80;99.90;;;;;;5072711;28;20047;-74
2024/02/26 11:02:26;;;;;;;4.50;2.60;;;5.90;99.90;;;;;;5072475;28;20208;-73
2024/02/26 11:04:52;;;;;;;5.00;2.60;;;5.90;99.90;;;;;;5055967;28;20037;-73
2024/02/26 11:07:20;;;;;;;10.63;2.83;;;5.90;99.90;;;;;;5072867;28;20094;-74
2024/02/26 11:09:51;;;;;;;7.18;2.83;;;5.90;99.90;;;;;;5071948;28;20165;-72
2024/02/26 11:12:18;;;;;;;4.45;2.20;;;5.90;99.90;;;;;;5055762;28;20040;-72
2024/02/26 11:14:46;;;;;;;2.95;2.03;;;5.90;99.90;;;;;;5072862;28;20052;-72
2024/02/26 11:17:14;;;;;;;2.83;2.33;;;6.00;99.90;;;;;;5072766;28;20055;-71
2024/02/26 11:19:42;;;;;;;4.88;1.80;;;6.00;99.90;;;;;;5073724;28;20094;-72
2024/02/26 11:22:08;;;;;;;2.40;1.80;;;6.10;99.90;;;;;;5072134;28;20091;-72
2024/02/26 11:24:34;;;;;;;4.55;2.20;;;6.10;99.90;;;;;;5072680;28;20444;-74
2024/02/26 11:27:04;;;;;;;6.05;2.38;;;6.00;99.90;;;;;;5073957;28;20044;-75
2024/02/26 11:29:38;;;;;;;3.00;1.80;;;6.10;99.90;;;;;;5072240;28;20124;-74
2024/02/26 11:32:05;;;;;;;4.03;2.20;;;6.10;99.90;;;;;;5072085;28;20037;-71
2024/02/26 11:34:31;;;;;;;3.88;1.70;;;6.20;99.90;;;;;;5072408;28;20051;-72
2024/02/26 11:36:57;;;;;;;4.22;1.65;;;6.20;99.90;;;;;;5072452;28;20033;-72
2024/02/26 11:39:23;;;;;;;4.13;2.42;;;6.10;99.90;;;;;;5071980;28;20126;-72
2024/02/26 11:41:50;;;;;;;3.63;2.00;;;6.10;99.90;;;;;;5071841;28;20461;-72
2024/02/26 11:44:29;;;;;;;3.60;2.75;;;6.20;99.90;;;;;;5072255;28;20091;-72
2024/02/26 11:46:56;;;;;;;3.67;2.10;;;6.10;99.90;;;;;;5072210;28;20047;-72
2024/02/26 11:49:28;;;;;;;4.32;2.58;;;6.20;99.90;;;;;;5071958;28;20678;-73
2024/02/26 11:51:55;;;;;;;3.25;2.13;;;6.30;99.90;;;;;;5071974;28;20557;-73
2024/02/26 11:54:56;;;;;;;3.83;2.47;;;6.20;99.90;;;;;;5055357;28;20043;-72
2024/02/26 11:57:39;;;;;;;3.50;2.40;;;6.40;99.90;;;;;;4975669;28;20065;-73
2024/02/26 12:00:16;;;;;;;4.18;3.28;;;6.40;99.90;;;;;;5062495;28;20523;-72
2024/02/26 12:02:58;;;;;;;4.18;2.92;;;6.40;99.90;;;;;;5071524;28;20109;-73
2024/02/26 12:05:24;;;;;;;5.63;3.78;;;6.40;99.90;;;;;;5071770;28;20070;-72
2024/02/26 12:08:03;;;;;;;5.63;3.60;;;6.40;99.90;;;;;;5071489;28;20037;-72
2024/02/26 12:10:44;;;;;;;5.93;4.35;;;6.40;99.90;;;;;;5071659;28;20044;-72
2024/02/26 12:13:17;;;;;;;5.80;3.97;;;6.40;99.90;;;;;;5071182;28;20530;-72
2024/02/26 12:15:55;;;;;;;7.57;4.72;;;6.50;99.90;;;;;;5071179;28;20036;-72
2024/02/26 12:18:22;;;;;;;11.98;4.68;;;6.50;99.90;;;;;;5066969;28;20036;-72
2024/02/26 12:21:01;;;;;;;8.38;5.28;;;6.50;99.90;;;;;;5070697;28;20037;-68
2024/02/26 12:23:28;;;;;;;10.00;4.70;;;6.60;99.90;;;;;;5072950;28;20041;-69
2024/02/26 12:25:58;;;;;;;8.20;4.15;;;6.60;99.90;;;;;;5072213;28;20041;-70
2024/02/26 12:28:27;;;;;;;14.68;6.00;;;6.50;99.90;;;;;;5072923;28;20058;-70
2024/02/26 12:30:52;;;;;;;10.95;5.18;;;6.50;99.90;;;;;;5072527;28;20078;-70
2024/02/26 12:33:18;;;;;;;5.85;4.18;;;6.50;99.90;;;;;;5074389;28;20040;-70
2024/02/26 12:35:47;;;;;;;6.47;4.40;;;6.50;99.90;;;;;;5073325;28;20036;-69
2024/02/26 12:38:14;;;;;;;8.52;5.00;;;6.50;99.90;;;;;;5071144;28;20040;-69
2024/02/26 12:40:40;;;;;;;11.80;5.43;;;6.60;99.90;;;;;;5071186;28;20527;-69
2024/02/26 12:43:12;;;;;;;6.80;5.07;;;6.50;99.90;;;;;;5073050;28;20041;-69
2024/02/26 12:45:40;;;;;;;9.10;5.88;;;6.40;99.90;;;;;;5072525;28;20041;-70
2024/02/26 12:48:06;;;;;;;9.30;5.65;;;6.30;99.90;;;;;;5071102;28;20056;-69